createdAt,value
2023-06-16T00:00:44.953Z,18.40
2023-06-16T00:03:17.490Z,18.40
2023-06-16T00:05:47.591Z,18.40
2023-06-16T00:08:16.672Z,18.25
2023-06-16T00:10:44.880Z,18.12
2023-06-16T00:13:13.231Z,18.28
2023-06-16T00:15:41.313Z,18.20
2023-06-16T00:18:09.327Z,18.21
2023-06-16T00:20:38.202Z,18.19
2023-06-16T00:23:09.934Z,18.25
2023-06-16T00:25:38.342Z,18.23
2023-06-16T00:28:06.447Z,18.23
2023-06-16T00:30:34.573Z,18.22
2023-06-16T00:33:02.651Z,18.00
2023-06-16T00:35:30.826Z,18.09
2023-06-16T00:37:59.506Z,18.21
2023-06-16T00:40:27.737Z,18.24
2023-06-16T00:42:59.453Z,18.14
2023-06-16T00:45:30.872Z,18.20
2023-06-16T00:47:59.692Z,18.26
2023-06-16T00:50:28.877Z,18.27
2023-06-16T00:52:57.309Z,18.22
2023-06-16T00:55:26.085Z,18.21
2023-06-16T00:57:55.178Z,18.16
2023-06-16T01:00:23.257Z,18.23
2023-06-16T01:02:51.614Z,17.90
2023-06-16T01:05:22.518Z,18.10
2023-06-16T01:08:00.824Z,18.17
2023-06-16T01:10:37.010Z,18.17
2023-06-16T01:13:27.029Z,17.98
2023-06-16T01:15:59.594Z,17.98
2023-06-16T01:18:29.286Z,18.23
2023-06-16T01:21:06.665Z,18.17
2023-06-16T01:24:03.369Z,18.25
2023-06-16T01:26:33.669Z,18.22
2023-06-16T01:29:04.149Z,18.10
2023-06-16T01:31:33.267Z,18.21
2023-06-16T01:34:02.790Z,18.20
2023-06-16T01:36:33.379Z,18.21
2023-06-16T01:39:02.351Z,18.22
2023-06-16T01:41:32.391Z,18.19
2023-06-16T01:44:01.636Z,18.24
2023-06-16T01:46:32.091Z,18.19
2023-06-16T01:49:00.711Z,18.20
2023-06-16T01:51:31.059Z,18.17
2023-06-16T01:53:59.085Z,18.20
2023-06-16T01:56:31.492Z,18.13
2023-06-16T01:59:00.614Z,18.24
2023-06-16T02:01:33.002Z,18.22
2023-06-16T02:04:12.810Z,18.17
2023-06-16T02:07:03.825Z,18.20
2023-06-16T02:09:34.279Z,17.95
2023-06-16T02:12:03.416Z,17.78
2023-06-16T02:14:34.468Z,17.73
2023-06-16T02:17:06.998Z,17.67
2023-06-16T02:19:35.285Z,17.67
2023-06-16T02:22:03.463Z,17.71
2023-06-16T02:24:34.273Z,17.67
2023-06-16T02:27:04.543Z,17.55
2023-06-16T02:29:32.802Z,17.67
2023-06-16T02:32:01.077Z,17.45
2023-06-16T02:34:29.071Z,17.76
2023-06-16T02:36:57.870Z,17.72
2023-06-16T02:39:26.126Z,17.80
2023-06-16T02:41:56.193Z,17.78
2023-06-16T02:44:24.810Z,17.84
2023-06-16T02:46:52.675Z,17.73
2023-06-16T02:49:21.985Z,17.90
2023-06-16T02:53:00.260Z,17.92
2023-06-16T02:55:28.610Z,17.91
2023-06-16T02:57:57.198Z,17.95
2023-06-16T03:00:26.133Z,17.92
2023-06-16T03:03:10.858Z,17.95
2023-06-16T03:05:40.772Z,17.96
2023-06-16T03:08:10.194Z,17.97
2023-06-16T03:10:38.318Z,18.00
2023-06-16T03:13:10.088Z,18.06
2023-06-16T03:15:38.226Z,18.09
2023-06-16T03:18:07.418Z,18.09
2023-06-16T03:20:36.476Z,18.11
2023-06-16T03:23:14.684Z,18.09
2023-06-16T03:25:43.327Z,18.04
2023-06-16T03:28:14.800Z,18.06
2023-06-16T03:30:45.489Z,18.05
2023-06-16T03:33:17.203Z,18.09
2023-06-16T03:35:47.854Z,18.10
2023-06-16T03:38:29.583Z,18.00
2023-06-16T03:40:58.230Z,18.08
2023-06-16T03:43:26.306Z,18.05
2023-06-16T03:45:55.931Z,17.86
2023-06-16T03:48:26.055Z,17.85
2023-06-16T03:50:58.457Z,17.79
2023-06-16T03:53:26.985Z,17.63
2023-06-16T03:55:56.827Z,17.54
2023-06-16T03:58:26.131Z,17.83
2023-06-16T04:00:54.259Z,18.00
2023-06-16T04:03:27.596Z,17.89
2023-06-16T04:05:56.705Z,17.90
2023-06-16T04:08:24.858Z,17.99
2023-06-16T04:10:58.924Z,17.87
2023-06-16T04:13:29.035Z,17.98
2023-06-16T04:15:57.210Z,17.31
2023-06-16T04:18:28.634Z,17.64
2023-06-16T04:20:56.761Z,17.74
2023-06-16T04:23:25.073Z,17.64
2023-06-16T04:25:53.897Z,17.81
2023-06-16T04:28:25.185Z,17.87
2023-06-16T04:30:58.018Z,17.86
2023-06-16T04:33:29.624Z,17.88
2023-06-16T04:35:58.474Z,17.99
2023-06-16T04:38:27.302Z,17.78
2023-06-16T04:40:58.164Z,18.08
2023-06-16T04:43:26.611Z,18.20
2023-06-16T04:45:55.236Z,18.16
2023-06-16T04:48:23.299Z,17.97
2023-06-16T04:50:51.834Z,17.97
2023-06-16T04:53:20.197Z,17.89
2023-06-16T04:55:48.204Z,18.12
2023-06-16T04:58:16.809Z,18.20
2023-06-16T05:00:45.008Z,18.17
2023-06-16T05:03:13.067Z,17.86
2023-06-16T05:05:41.309Z,18.10
2023-06-16T05:08:09.450Z,18.12
2023-06-16T05:10:38.590Z,18.05
2023-06-16T05:13:06.729Z,18.11
2023-06-16T05:15:35.062Z,17.91
2023-06-16T05:18:03.734Z,17.76
2023-06-16T05:20:33.386Z,17.73
2023-06-16T05:23:04.843Z,17.86
2023-06-16T05:25:34.219Z,18.12
2023-06-16T05:28:06.444Z,18.14
2023-06-16T05:30:34.632Z,17.92
2023-06-16T05:33:04.119Z,17.88
2023-06-16T05:35:32.336Z,17.86
2023-06-16T05:38:00.507Z,18.17
2023-06-16T05:40:30.124Z,18.42
2023-06-16T05:42:58.950Z,18.11
2023-06-16T05:45:27.137Z,18.32
2023-06-16T05:47:55.664Z,18.10
2023-06-16T05:50:24.070Z,18.22
2023-06-16T05:52:52.691Z,18.08
2023-06-16T05:55:20.710Z,18.25
2023-06-16T05:57:52.684Z,18.12
2023-06-16T06:00:21.361Z,18.09
2023-06-16T06:02:56.464Z,18.07
2023-06-16T06:05:33.480Z,18.06
2023-06-16T06:08:01.850Z,18.47
2023-06-16T06:10:30.702Z,18.26
2023-06-16T06:13:03.763Z,18.45
2023-06-16T06:15:32.324Z,18.75
2023-06-16T06:18:06.160Z,18.82
2023-06-16T06:20:39.904Z,18.86
2023-06-16T06:23:08.096Z,18.54
2023-06-16T06:25:36.482Z,18.67
2023-06-16T06:28:04.939Z,18.67
2023-06-16T06:30:32.991Z,18.55
2023-06-16T06:33:02.137Z,18.85
2023-06-16T06:35:31.009Z,18.83
2023-06-16T06:38:00.096Z,18.80
2023-06-16T06:40:28.199Z,18.89
2023-06-16T06:42:56.740Z,18.96
2023-06-16T06:45:32.150Z,18.98
2023-06-16T06:48:00.290Z,18.43
2023-06-16T06:50:28.376Z,18.74
2023-06-16T06:52:56.713Z,18.35
2023-06-16T06:55:24.832Z,18.44
2023-06-16T06:57:52.895Z,18.56
2023-06-16T07:00:21.223Z,18.47
2023-06-16T07:02:49.566Z,18.63
2023-06-16T07:05:17.614Z,18.77
2023-06-16T07:07:45.751Z,18.80
2023-06-16T07:10:14.621Z,18.65
2023-06-16T07:12:43.821Z,18.73
2023-06-16T07:15:12.249Z,18.05
2023-06-16T07:17:42.744Z,18.35
2023-06-16T07:20:11.475Z,18.69
2023-06-16T07:22:39.438Z,18.65
2023-06-16T07:25:07.931Z,18.54
2023-06-16T07:27:36.044Z,18.53
2023-06-16T07:30:06.495Z,18.55
2023-06-16T07:32:35.054Z,18.20
2023-06-16T07:35:03.760Z,18.08
2023-06-16T07:37:31.987Z,18.22
2023-06-16T07:40:00.462Z,18.16
2023-06-16T07:42:28.575Z,18.33
2023-06-16T07:44:56.816Z,18.06
2023-06-16T07:47:24.896Z,17.95
2023-06-16T07:49:52.957Z,18.00
2023-06-16T07:52:21.137Z,18.28
2023-06-16T07:54:49.109Z,18.25
2023-06-16T07:57:17.280Z,18.40
2023-06-16T07:59:45.325Z,18.59
2023-06-16T08:02:13.557Z,18.38
2023-06-16T08:04:41.888Z,18.59
2023-06-16T08:07:10.036Z,18.76
2023-06-16T08:09:37.921Z,18.84
2023-06-16T08:12:06.585Z,18.76
2023-06-16T08:14:34.413Z,18.91
2023-06-16T08:17:02.299Z,18.74
2023-06-16T08:19:30.280Z,18.71
2023-06-16T08:21:58.398Z,18.86
2023-06-16T08:24:26.492Z,18.85
2023-06-16T08:26:54.653Z,18.95
2023-06-16T08:29:22.833Z,19.18
2023-06-16T08:31:51.072Z,18.90
2023-06-16T08:34:19.662Z,18.84
2023-06-16T08:36:47.711Z,18.75
2023-06-16T08:39:19.128Z,18.84
2023-06-16T08:41:51.003Z,18.98
2023-06-16T08:44:22.482Z,19.07
2023-06-16T08:46:51.776Z,19.03
2023-06-16T08:49:20.091Z,19.14
2023-06-16T08:51:52.352Z,19.11
2023-06-16T08:54:21.768Z,19.18
2023-06-16T08:56:52.717Z,19.19
2023-06-16T08:59:22.103Z,19.42
2023-06-16T09:01:50.631Z,19.25
2023-06-16T09:04:18.668Z,19.39
2023-06-16T09:06:49.181Z,19.65
2023-06-16T09:09:17.684Z,19.77
2023-06-16T09:12:03.442Z,19.75
2023-06-16T09:14:33.086Z,19.69
2023-06-16T09:17:05.814Z,19.55
2023-06-16T09:19:37.622Z,19.41
2023-06-16T09:22:06.509Z,19.41
2023-06-16T09:24:37.215Z,19.40
2023-06-16T09:27:08.252Z,19.50
2023-06-16T09:29:38.823Z,19.36
2023-06-16T09:32:09.628Z,19.24
2023-06-16T09:34:38.879Z,19.46
2023-06-16T09:37:07.989Z,19.61
2023-06-16T09:39:36.241Z,19.85
2023-06-16T09:42:04.574Z,19.76
2023-06-16T09:44:33.632Z,19.75
2023-06-16T09:47:02.601Z,19.81
2023-06-16T09:49:31.209Z,19.96
2023-06-16T09:51:59.996Z,19.69
2023-06-16T09:54:29.098Z,19.70
2023-06-16T09:56:58.034Z,19.75
2023-06-16T09:59:27.627Z,19.70
2023-06-16T10:01:56.944Z,19.65
2023-06-16T10:04:26.132Z,19.47
2023-06-16T10:07:02.256Z,19.72
2023-06-16T10:10:02.787Z,19.83
2023-06-16T10:12:37.550Z,20.01
2023-06-16T10:15:11.441Z,20.19
2023-06-16T10:17:41.394Z,20.27
2023-06-16T10:20:11.571Z,20.33
2023-06-16T10:22:39.929Z,20.25
2023-06-16T10:25:09.040Z,20.37
2023-06-16T10:27:37.980Z,20.31
2023-06-16T10:30:08.155Z,20.26
2023-06-16T10:32:37.158Z,20.34
2023-06-16T10:35:10.967Z,20.31
2023-06-16T10:37:39.393Z,20.25
2023-06-16T10:40:13.934Z,19.84
2023-06-16T10:42:42.620Z,20.21
2023-06-16T10:45:30.863Z,20.23
2023-06-16T10:48:05.630Z,20.49
2023-06-16T10:50:39.732Z,20.45
2023-06-16T10:53:16.048Z,20.50
2023-06-16T10:55:46.418Z,19.92
2023-06-16T10:58:20.798Z,20.58
2023-06-16T11:00:59.619Z,20.68
2023-06-16T11:03:46.990Z,20.82
2023-06-16T11:06:17.885Z,20.82
2023-06-16T11:08:56.966Z,20.87
2023-06-16T11:11:34.933Z,20.94
2023-06-16T11:14:03.388Z,20.85
2023-06-16T11:16:31.628Z,20.84
2023-06-16T11:19:00.141Z,20.76
2023-06-16T11:21:31.696Z,21.04
2023-06-16T11:24:13.767Z,21.19
2023-06-16T11:26:42.531Z,21.47
2023-06-16T11:29:12.202Z,21.41
2023-06-16T11:31:42.356Z,21.26
2023-06-16T11:34:11.499Z,21.49
2023-06-16T11:36:39.582Z,21.63
2023-06-16T11:39:12.974Z,21.72
2023-06-16T11:41:47.222Z,21.56
2023-06-16T11:44:26.703Z,21.03
2023-06-16T11:46:55.038Z,21.54
2023-06-16T11:49:24.797Z,21.65
2023-06-16T11:51:53.649Z,21.79
2023-06-16T11:54:22.774Z,21.69
2023-06-16T11:56:51.366Z,21.52
2023-06-16T11:59:20.368Z,21.56
2023-06-16T12:01:50.240Z,21.33
2023-06-16T12:04:19.769Z,21.32
2023-06-16T12:06:48.596Z,20.94
2023-06-16T12:09:21.296Z,21.22
2023-06-16T12:11:50.469Z,21.24
2023-06-16T12:14:22.191Z,21.50
2023-06-16T12:16:52.167Z,21.65
2023-06-16T12:19:21.517Z,21.75
2023-06-16T12:21:53.536Z,21.67
2023-06-16T12:24:23.023Z,21.46
2023-06-16T12:26:55.189Z,21.46
2023-06-16T12:29:27.829Z,21.47
2023-06-16T12:32:01.875Z,21.56
2023-06-16T12:34:32.442Z,21.56
2023-06-16T12:37:08.204Z,21.18
2023-06-16T12:39:36.748Z,21.46
2023-06-16T12:42:10.751Z,21.32
2023-06-16T12:44:46.565Z,21.15
2023-06-16T12:47:18.399Z,21.05
2023-06-16T12:49:46.744Z,21.09
2023-06-16T12:52:16.927Z,20.93
2023-06-16T12:54:45.745Z,20.76
2023-06-16T12:57:15.079Z,20.97
2023-06-16T12:59:43.893Z,20.55
2023-06-16T13:02:12.665Z,20.62
2023-06-16T13:04:44.571Z,20.54
2023-06-16T13:07:13.338Z,20.31
2023-06-16T13:09:43.202Z,20.22
2023-06-16T13:12:12.680Z,20.19
2023-06-16T13:14:41.410Z,20.09
2023-06-16T13:17:10.779Z,20.00
2023-06-16T13:19:40.144Z,19.95
2023-06-16T13:22:09.236Z,19.82
2023-06-16T13:24:39.431Z,19.76
2023-06-16T13:27:08.296Z,19.79
2023-06-16T13:29:37.656Z,19.55
2023-06-16T13:32:06.937Z,19.56
2023-06-16T13:34:36.087Z,19.51
2023-06-16T13:37:04.903Z,19.67
2023-06-16T13:39:34.007Z,19.85
2023-06-16T13:42:02.601Z,19.67
2023-06-16T13:44:31.425Z,19.90
2023-06-16T13:47:00.107Z,19.96
2023-06-16T13:49:28.399Z,20.07
2023-06-16T13:51:56.598Z,20.08
2023-06-16T13:54:24.674Z,20.08
2023-06-16T13:56:55.077Z,20.13
2023-06-16T13:59:24.318Z,20.21
2023-06-16T14:01:52.495Z,20.00
2023-06-16T14:04:21.380Z,20.14
2023-06-16T14:06:49.566Z,20.26
2023-06-16T14:09:17.984Z,20.23
2023-06-16T14:11:46.071Z,20.06
2023-06-16T14:14:14.489Z,20.11
2023-06-16T14:16:42.551Z,20.23
2023-06-16T14:19:12.763Z,20.27
2023-06-16T14:21:40.858Z,20.25
2023-06-16T14:24:09.171Z,20.01
2023-06-16T14:26:37.302Z,20.02
2023-06-16T14:29:05.415Z,20.21
2023-06-16T14:31:33.824Z,20.25
2023-06-16T14:34:01.974Z,20.29
2023-06-16T14:36:30.571Z,20.23
2023-06-16T14:38:58.700Z,20.30
2023-06-16T14:41:27.551Z,20.16
2023-06-16T14:43:55.579Z,19.96
2023-06-16T14:46:23.593Z,19.95
2023-06-16T14:48:52.483Z,19.99
2023-06-16T14:51:20.460Z,20.08
2023-06-16T14:53:48.588Z,19.95
2023-06-16T14:56:18.968Z,20.16
2023-06-16T14:58:47.237Z,19.77
2023-06-16T15:01:15.458Z,20.10
2023-06-16T15:03:46.733Z,20.16
2023-06-16T15:06:16.754Z,20.14
2023-06-16T15:08:45.169Z,20.01
2023-06-16T15:11:13.894Z,19.89
2023-06-16T15:13:41.894Z,20.12
2023-06-16T15:16:10.019Z,20.05
2023-06-16T15:18:41.791Z,20.03
2023-06-16T15:21:09.921Z,20.12
2023-06-16T15:23:40.794Z,20.30
2023-06-16T15:26:11.235Z,20.30
2023-06-16T15:28:39.574Z,20.30
2023-06-16T15:31:07.609Z,20.23
2023-06-16T15:33:35.930Z,20.28
2023-06-16T15:36:05.221Z,20.39
2023-06-16T15:38:33.521Z,20.39
2023-06-16T15:41:02.019Z,20.37
2023-06-16T15:43:29.874Z,20.30
2023-06-16T15:45:58.201Z,20.28
2023-06-16T15:48:26.442Z,20.25
2023-06-16T15:50:54.508Z,20.23
2023-06-16T15:53:23.428Z,20.25
2023-06-16T15:55:51.699Z,20.21
2023-06-16T15:58:19.721Z,20.07
2023-06-16T16:00:47.732Z,19.85
2023-06-16T16:03:16.005Z,20.04
2023-06-16T16:05:44.449Z,20.04
2023-06-16T16:08:14.879Z,20.07
2023-06-16T16:10:43.180Z,19.98
2023-06-16T16:13:11.298Z,20.07
2023-06-16T16:15:39.671Z,20.07
2023-06-16T16:18:08.981Z,20.08
2023-06-16T16:20:40.164Z,20.08
2023-06-16T16:23:08.210Z,19.97
2023-06-16T16:25:36.227Z,19.66
2023-06-16T16:28:04.554Z,19.95
2023-06-16T16:30:32.657Z,19.98
2023-06-16T16:33:00.830Z,20.05
2023-06-16T16:35:28.859Z,20.00
2023-06-16T16:37:56.851Z,19.74
2023-06-16T16:40:26.493Z,19.83
2023-06-16T16:42:54.718Z,19.84
2023-06-16T16:45:23.543Z,19.86
2023-06-16T16:47:51.839Z,19.91
2023-06-16T16:50:20.264Z,19.94
2023-06-16T16:52:48.234Z,19.91
2023-06-16T16:55:33.584Z,19.87
2023-06-16T16:58:04.658Z,19.88
2023-06-16T17:00:33.045Z,19.84
2023-06-16T17:03:01.235Z,19.91
2023-06-16T17:05:29.822Z,19.88
2023-06-16T17:07:57.896Z,19.89
2023-06-16T17:10:25.980Z,19.93
2023-06-16T17:12:54.189Z,19.91
2023-06-16T17:15:23.596Z,19.62
2023-06-16T17:17:51.834Z,19.56
2023-06-16T17:20:20.202Z,19.38
2023-06-16T17:22:48.306Z,19.20
2023-06-16T17:25:16.256Z,19.08
2023-06-16T17:27:58.232Z,18.86
2023-06-16T17:30:30.593Z,18.92
2023-06-16T17:33:00.788Z,19.09
2023-06-16T17:35:31.040Z,19.28
2023-06-16T17:38:00.317Z,19.34
2023-06-16T17:40:34.996Z,19.09
2023-06-16T17:43:03.520Z,18.89
2023-06-16T17:45:33.665Z,18.99
2023-06-16T17:48:02.313Z,19.04
2023-06-16T17:50:30.695Z,19.03
2023-06-16T17:53:00.054Z,19.06
2023-06-16T17:55:28.491Z,19.12
2023-06-16T17:57:56.957Z,19.12
2023-06-16T18:00:25.125Z,19.11
2023-06-16T18:02:53.420Z,19.03
2023-06-16T18:05:23.679Z,19.06
2023-06-16T18:07:53.345Z,19.12
2023-06-16T18:10:22.102Z,19.20
2023-06-16T18:12:50.512Z,19.20
2023-06-16T18:15:18.561Z,19.29
2023-06-16T18:17:50.708Z,19.25
2023-06-16T18:20:19.200Z,19.18
2023-06-16T18:22:47.438Z,18.95
2023-06-16T18:25:15.426Z,19.07
2023-06-16T18:27:43.449Z,19.06
2023-06-16T18:30:11.843Z,19.06
2023-06-16T18:32:41.129Z,19.07
2023-06-16T18:35:09.782Z,19.11
2023-06-16T18:37:47.650Z,19.13
2023-06-16T18:40:15.944Z,19.10
2023-06-16T18:42:44.779Z,19.05
2023-06-16T18:45:15.416Z,19.04
2023-06-16T18:47:47.328Z,19.01
2023-06-16T18:50:15.948Z,19.03
2023-06-16T18:52:44.056Z,18.91
2023-06-16T18:55:13.818Z,18.95
2023-06-16T18:57:42.271Z,19.00
2023-06-16T19:00:10.788Z,18.99
2023-06-16T19:02:39.867Z,18.93
2023-06-16T19:05:09.723Z,18.65
2023-06-16T19:07:38.177Z,18.79
2023-06-16T19:10:07.409Z,18.81
2023-06-16T19:12:35.435Z,18.79
2023-06-16T19:15:04.169Z,18.78
2023-06-16T19:17:33.765Z,18.64
2023-06-16T19:20:05.741Z,18.60
2023-06-16T19:22:33.919Z,18.65
2023-06-16T19:25:02.836Z,18.69
2023-06-16T19:27:30.805Z,18.69
2023-06-16T19:29:58.874Z,18.70
2023-06-16T19:32:27.656Z,18.64
2023-06-16T19:34:56.371Z,18.73
2023-06-16T19:37:25.590Z,18.73
2023-06-16T19:39:53.686Z,18.75
2023-06-16T19:42:21.949Z,18.65
2023-06-16T19:44:50.125Z,18.61
2023-06-16T19:47:18.230Z,18.67
2023-06-16T19:49:46.294Z,18.64
2023-06-16T19:52:14.358Z,18.67
2023-06-16T19:54:42.435Z,18.61
2023-06-16T19:57:10.580Z,18.63
2023-06-16T19:59:38.662Z,18.65
2023-06-16T20:02:07.945Z,18.70
2023-06-16T20:04:36.149Z,18.69
2023-06-16T20:07:04.422Z,18.71
2023-06-16T20:09:32.531Z,18.67
2023-06-16T20:12:00.582Z,18.72
2023-06-16T20:14:29.305Z,18.66
2023-06-16T20:16:57.881Z,18.66
2023-06-16T20:19:26.015Z,18.58
2023-06-16T20:22:00.225Z,18.51
2023-06-16T20:24:28.302Z,18.47
2023-06-16T20:26:56.541Z,18.46
2023-06-16T20:29:24.735Z,18.49
2023-06-16T20:31:53.012Z,18.47
2023-06-16T20:34:21.200Z,18.41
2023-06-16T20:36:49.459Z,18.38
2023-06-16T20:39:18.080Z,18.42
2023-06-16T20:41:46.053Z,18.43
2023-06-16T20:44:18.160Z,18.48
2023-06-16T20:46:46.718Z,18.47
2023-06-16T20:49:15.013Z,18.41
2023-06-16T20:51:43.069Z,18.39
2023-06-16T20:54:10.996Z,18.46
2023-06-16T20:56:39.293Z,18.43
2023-06-16T20:59:07.232Z,18.39
2023-06-16T21:01:44.414Z,18.41
2023-06-16T21:04:13.242Z,18.32
2023-06-16T21:06:42.215Z,18.29
2023-06-16T21:09:11.746Z,18.35
2023-06-16T21:11:40.342Z,18.26
2023-06-16T21:14:10.888Z,18.30
2023-06-16T21:16:39.186Z,18.15
2023-06-16T21:19:07.392Z,18.28
2023-06-16T21:21:35.362Z,18.23
2023-06-16T21:24:03.940Z,18.28
2023-06-16T21:26:31.675Z,18.25
2023-06-16T21:28:59.533Z,18.17
2023-06-16T21:31:27.632Z,18.11
2023-06-16T21:33:59.707Z,18.13
2023-06-16T21:36:27.769Z,18.13
2023-06-16T21:38:57.004Z,18.14
2023-06-16T21:41:25.591Z,18.08
2023-06-16T21:43:53.825Z,18.05
2023-06-16T21:46:21.806Z,17.99
2023-06-16T21:48:52.496Z,18.04
2023-06-16T21:51:20.501Z,17.95
2023-06-16T21:53:49.962Z,17.90
2023-06-16T21:56:18.973Z,17.80
2023-06-16T21:58:47.112Z,17.87
2023-06-16T22:01:15.076Z,17.87
2023-06-16T22:03:43.204Z,17.92
2023-06-16T22:06:13.338Z,17.90
2023-06-16T22:08:41.877Z,17.84
2023-06-16T22:11:09.810Z,17.89
2023-06-16T22:13:39.580Z,17.81
2023-06-16T22:16:07.903Z,17.75
2023-06-16T22:18:35.925Z,17.80
2023-06-16T22:21:04.118Z,17.83
2023-06-16T22:23:32.173Z,17.83
2023-06-16T22:26:00.168Z,17.89
2023-06-16T22:28:28.138Z,17.92
2023-06-16T22:31:14.590Z,17.89
2023-06-16T22:33:42.990Z,17.84
2023-06-16T22:36:11.310Z,17.94
2023-06-16T22:38:39.276Z,17.94
2023-06-16T22:41:07.436Z,17.95
2023-06-16T22:43:36.252Z,17.93
2023-06-16T22:46:04.311Z,17.91
2023-06-16T22:48:43.220Z,17.87
2023-06-16T22:51:12.425Z,17.87
2023-06-16T22:53:41.068Z,17.84
2023-06-16T22:56:08.948Z,17.88
2023-06-16T22:58:37.076Z,17.81
2023-06-16T23:01:06.994Z,17.74
2023-06-16T23:03:35.816Z,17.77
2023-06-16T23:06:04.060Z,17.61
2023-06-16T23:08:32.267Z,17.70
2023-06-16T23:11:01.087Z,17.72
2023-06-16T23:13:29.118Z,17.72
2023-06-16T23:16:09.774Z,17.72
2023-06-16T23:18:37.822Z,17.69
2023-06-16T23:21:07.974Z,17.67
2023-06-16T23:23:36.652Z,17.46
2023-06-16T23:26:05.133Z,17.46
2023-06-16T23:28:34.726Z,17.43
2023-06-16T23:31:03.046Z,17.32
2023-06-16T23:33:31.797Z,17.29
2023-06-16T23:35:59.786Z,17.28
2023-06-16T23:38:27.805Z,17.32
2023-06-16T23:40:55.903Z,17.39
2023-06-16T23:43:24.027Z,17.29
2023-06-16T23:45:52.047Z,17.25
2023-06-16T23:48:20.020Z,17.29
2023-06-16T23:50:47.896Z,17.36
2023-06-16T23:53:15.998Z,17.42
2023-06-16T23:55:43.830Z,17.41
2023-06-16T23:58:12.396Z,17.45
